Time;durP1;ratioP1;P1;durP2;ratioP2;P2;SDS_P1;SDS_P2;PMS_P1;PMS_P2;Temp;Humidity;BMP_temperature;BMP_pressure;BME280_temperature;BME280_humidity;BME280_pressure;Samples;Min_cycle;Max_cycle;Signal;HPM_P1;HPM_P2
2021/09/17 00:00:40;;;;;;;5.53;4.45;;;20.70;72.50;;;;;;10413848;28;20061;-58
2021/09/17 00:05:41;;;;;;;6.05;4.93;;;20.70;72.50;;;;;;10412324;28;20026;-58
2021/09/17 00:10:41;;;;;;;6.10;5.07;;;20.70;72.40;;;;;;10413663;28;20068;-58
2021/09/17 00:15:42;;;;;;;6.78;4.72;;;20.70;72.50;;;;;;10413457;28;20097;-58
2021/09/17 00:20:43;;;;;;;5.15;4.65;;;20.70;72.40;;;;;;10425301;28;20100;-58
2021/09/17 00:25:44;;;;;;;6.40;5.43;;;20.70;72.30;;;;;;10413167;28;20091;-58
2021/09/17 00:30:45;;;;;;;4.55;4.15;;;20.70;72.40;;;;;;10417779;28;20029;-58
2021/09/17 00:35:45;;;;;;;5.50;4.95;;;20.70;72.40;;;;;;10419722;28;20097;-58
2021/09/17 00:40:46;;;;;;;6.38;4.85;;;20.70;72.30;;;;;;10419579;28;20481;-57
2021/09/17 00:45:47;;;;;;;6.43;5.22;;;20.70;72.30;;;;;;10420024;28;20065;-58
2021/09/17 00:50:49;;;;;;;5.65;4.88;;;20.70;72.20;;;;;;10420398;28;20041;-58
2021/09/17 00:55:49;;;;;;;6.15;5.10;;;20.60;72.20;;;;;;10419064;28;20097;-58
2021/09/17 01:00:50;;;;;;;6.10;5.22;;;20.70;72.30;;;;;;10420021;28;20112;-58
2021/09/17 01:05:51;;;;;;;5.45;4.90;;;20.70;72.30;;;;;;10422384;28;20406;-58
2021/09/17 01:10:52;;;;;;;5.60;4.68;;;20.70;72.30;;;;;;10419384;28;20518;-58
2021/09/17 01:15:52;;;;;;;6.45;5.38;;;20.60;72.80;;;;;;10418816;28;20132;-58
2021/09/17 01:21:01;;;;;;;5.28;4.78;;;20.70;72.30;;;;;;10430002;28;20438;-58
2021/09/17 01:26:03;;;;;;;6.07;5.00;;;20.60;72.30;;;;;;10419041;28;20033;-58
2021/09/17 01:31:03;;;;;;;5.50;4.82;;;20.60;72.30;;;;;;10418627;28;20025;-57
2021/09/17 01:36:09;;;;;;;5.10;4.60;;;20.60;72.20;;;;;;10418542;28;20100;-58
2021/09/17 01:41:10;;;;;;;5.65;5.10;;;20.60;72.90;;;;;;10418374;28;20038;-58
2021/09/17 01:46:10;;;;;;;5.35;4.72;;;20.60;72.30;;;;;;10416648;28;20045;-58
2021/09/17 01:51:11;;;;;;;5.18;4.68;;;20.60;72.30;;;;;;10417841;28;20131;-58
2021/09/17 01:56:13;;;;;;;5.65;5.03;;;20.60;72.30;;;;;;10416659;28;20064;-58
2021/09/17 02:01:14;;;;;;;5.18;4.68;;;20.60;72.30;;;;;;10417615;28;20108;-58
2021/09/17 02:06:23;;;;;;;6.25;5.25;;;20.60;72.30;;;;;;10417380;28;20136;-58
2021/09/17 02:11:24;;;;;;;6.75;5.75;;;20.60;72.30;;;;;;10417131;28;20375;-58
2021/09/17 02:16:25;;;;;;;6.40;5.53;;;20.60;72.30;;;;;;10399351;28;20033;-57
2021/09/17 02:21:25;;;;;;;6.38;5.70;;;20.60;72.30;;;;;;10429325;28;20123;-58
2021/09/17 02:26:26;;;;;;;5.40;4.90;;;20.60;72.20;;;;;;10415469;28;20454;-58
2021/09/17 02:31:27;;;;;;;6.03;5.43;;;20.60;72.30;;;;;;10415073;28;20036;-58
2021/09/17 02:36:27;;;;;;;5.75;5.15;;;20.50;72.20;;;;;;10416351;28;20021;-58
2021/09/17 02:41:28;;;;;;;5.55;4.90;;;20.60;72.30;;;;;;10415996;28;20072;-58
2021/09/17 02:46:29;;;;;;;6.22;5.63;;;20.50;72.30;;;;;;10415341;28;20083;-58
2021/09/17 02:51:29;;;;;;;7.40;5.70;;;20.50;72.30;;;;;;10414973;28;20029;-58
2021/09/17 02:56:30;;;;;;;6.13;5.53;;;20.50;72.30;;;;;;10415211;28;20033;-58
2021/09/17 03:01:31;;;;;;;5.82;5.13;;;20.50;72.30;;;;;;10415564;28;20056;-58
2021/09/17 03:06:31;;;;;;;6.07;5.47;;;20.50;72.30;;;;;;10415104;28;20052;-58
2021/09/17 03:11:32;;;;;;;6.70;6.00;;;20.50;72.30;;;;;;10421576;28;20359;-58
2021/09/17 03:16:33;;;;;;;7.20;6.00;;;20.50;72.30;;;;;;10414723;28;20037;-59
2021/09/17 03:21:33;;;;;;;5.43;4.93;;;20.50;72.40;;;;;;10426947;28;20037;-58
2021/09/17 03:26:34;;;;;;;5.78;5.18;;;20.50;72.30;;;;;;10409787;28;20472;-59
2021/09/17 03:31:35;;;;;;;6.97;5.70;;;20.50;72.30;;;;;;10414388;28;20616;-58
2021/09/17 03:36:44;;;;;;;6.43;5.68;;;20.50;72.30;;;;;;10414359;28;20060;-58
2021/09/17 03:41:45;;;;;;;5.82;5.22;;;20.50;72.30;;;;;;10414370;28;20041;-58
2021/09/17 03:46:46;;;;;;;6.60;6.00;;;20.50;72.30;;;;;;10412963;28;20053;-58
2021/09/17 03:51:47;;;;;;;6.82;6.13;;;20.50;72.30;;;;;;10413844;28;20045;-58
2021/09/17 03:56:47;;;;;;;6.95;5.72;;;20.50;72.30;;;;;;10412727;28;20030;-58
2021/09/17 04:01:48;;;;;;;7.25;6.15;;;20.50;72.40;;;;;;10412917;28;20083;-59
2021/09/17 04:06:49;;;;;;;6.55;5.70;;;20.40;72.40;;;;;;10420138;28;20033;-59
2021/09/17 04:11:50;;;;;;;6.90;5.88;;;20.40;72.40;;;;;;10421918;28;20489;-58
2021/09/17 04:16:50;;;;;;;7.85;6.47;;;20.40;72.40;;;;;;10411050;28;20037;-58
2021/09/17 04:21:51;;;;;;;7.70;6.75;;;20.40;72.40;;;;;;10419383;28;20045;-58
2021/09/17 04:26:52;;;;;;;7.40;6.47;;;20.40;72.50;;;;;;10412647;28;20033;-58
2021/09/17 04:31:53;;;;;;;8.30;6.47;;;20.40;72.50;;;;;;10413144;28;20458;-58
2021/09/17 04:36:53;;;;;;;7.28;6.43;;;20.40;72.60;;;;;;10412893;28;20120;-58
2021/09/17 04:41:54;;;;;;;8.63;6.47;;;20.40;72.60;;;;;;10413928;28;20041;-58
2021/09/17 04:46:55;;;;;;;9.07;7.55;;;20.40;72.60;;;;;;10395714;28;20068;-59
2021/09/17 04:51:56;;;;;;;10.00;6.95;;;20.40;72.60;;;;;;10406642;28;20026;-58
2021/09/17 04:56:56;;;;;;;8.25;7.40;;;20.40;72.60;;;;;;10420097;28;20029;-58
2021/09/17 05:01:57;;;;;;;8.00;6.80;;;20.40;72.60;;;;;;10418690;28;20033;-58
2021/09/17 05:06:58;;;;;;;10.93;7.80;;;20.40;72.80;;;;;;10408394;28;20057;-59
2021/09/17 05:11:59;;;;;;;9.25;7.53;;;20.40;72.90;;;;;;10431334;28;20150;-59
2021/09/17 05:16:59;;;;;;;14.38;8.15;;;20.40;72.90;;;;;;10418176;28;20168;-58
2021/09/17 05:22:00;;;;;;;15.52;8.45;;;20.50;73.30;;;;;;10422223;28;20040;-59
2021/09/17 05:27:01;;;;;;;12.93;8.25;;;20.50;73.00;;;;;;10418553;28;20059;-58
2021/09/17 05:32:02;;;;;;;13.95;7.50;;;20.50;73.20;;;;;;10418890;28;20065;-58
2021/09/17 05:37:03;;;;;;;12.57;7.82;;;20.60;73.60;;;;;;10418324;28;20471;-58
2021/09/17 05:42:05;;;;;;;14.02;8.25;;;20.60;73.20;;;;;;10418169;28;20040;-59
2021/09/17 05:47:06;;;;;;;14.02;8.35;;;20.60;73.60;;;;;;10416511;28;20502;-58
2021/09/17 05:52:07;;;;;;;20.60;9.43;;;20.60;73.50;;;;;;10417617;28;20025;-59
2021/09/17 05:57:07;;;;;;;19.27;8.43;;;20.70;73.70;;;;;;10416440;28;20029;-60
2021/09/17 06:02:08;;;;;;;19.83;7.88;;;20.70;73.40;;;;;;10416163;28;20040;-62
2021/09/17 06:07:09;;;;;;;21.38;9.23;;;20.70;74.10;;;;;;10410799;28;20120;-60
2021/09/17 06:12:10;;;;;;;26.83;9.73;;;20.70;73.90;;;;;;10412076;28;20468;-60
2021/09/17 06:17:11;;;;;;;21.88;11.25;;;20.60;73.70;;;;;;10415057;28;20152;-60
2021/09/17 06:22:11;;;;;;;13.40;8.88;;;20.60;73.70;;;;;;10387410;28;20557;-60
2021/09/17 06:27:12;;;;;;;17.35;8.55;;;20.50;73.90;;;;;;10414882;28;20112;-60
2021/09/17 06:32:13;;;;;;;15.95;9.20;;;20.50;73.90;;;;;;10431581;28;20037;-59
2021/09/17 06:37:13;;;;;;;26.73;11.75;;;20.50;73.90;;;;;;10402517;28;20029;-60
2021/09/17 06:42:14;;;;;;;20.42;11.15;;;20.50;74.60;;;;;;10412448;28;20057;-58
2021/09/17 06:47:14;;;;;;;22.05;10.68;;;20.60;74.50;;;;;;10413929;28;20088;-62
2021/09/17 06:52:15;;;;;;;16.27;10.95;;;20.60;74.60;;;;;;10412479;28;20033;-62
2021/09/17 06:57:16;;;;;;;17.17;10.48;;;20.60;74.60;;;;;;10413221;28;20101;-62
2021/09/17 07:02:16;;;;;;;23.45;10.50;;;20.60;74.40;;;;;;10411781;28;20029;-64
2021/09/17 07:07:17;;;;;;;15.60;10.15;;;20.60;74.10;;;;;;10414004;28;20051;-64
2021/09/17 07:12:18;;;;;;;22.42;11.02;;;20.50;74.20;;;;;;10411985;28;20112;-64
2021/09/17 07:17:18;;;;;;;16.33;9.82;;;20.60;74.20;;;;;;10411531;28;20457;-64
2021/09/17 07:22:20;;;;;;;18.27;10.43;;;20.60;74.20;;;;;;10423423;28;20112;-65
2021/09/17 07:27:21;;;;;;;18.58;10.48;;;20.60;74.10;;;;;;10413178;28;20517;-64
2021/09/17 07:32:22;;;;;;;14.75;9.68;;;20.60;74.20;;;;;;10409603;28;20028;-63
2021/09/17 07:37:22;;;;;;;28.77;11.85;;;20.60;74.30;;;;;;10410099;28;20116;-64
2021/09/17 07:42:23;;;;;;;16.77;10.07;;;20.60;74.20;;;;;;10412458;28;20377;-64
2021/09/17 07:47:24;;;;;;;13.38;9.15;;;20.60;74.20;;;;;;10411684;28;20115;-64
2021/09/17 07:52:25;;;;;;;14.32;8.75;;;20.60;74.20;;;;;;10413832;28;20600;-64
2021/09/17 07:57:25;;;;;;;10.73;8.02;;;20.60;74.20;;;;;;10413700;28;20351;-63
2021/09/17 08:02:26;;;;;;;12.60;8.07;;;20.60;74.20;;;;;;10411709;28;20060;-64
2021/09/17 08:07:27;;;;;;;13.00;9.07;;;20.60;74.30;;;;;;10412442;28;20436;-64
2021/09/17 08:12:28;;;;;;;14.38;8.25;;;20.60;74.30;;;;;;10412103;28;20111;-64
2021/09/17 08:17:28;;;;;;;14.57;8.43;;;20.60;74.30;;;;;;10412225;28;20389;-64
2021/09/17 08:22:29;;;;;;;13.38;8.30;;;20.60;74.30;;;;;;10424961;28;20112;-64
2021/09/17 08:27:29;;;;;;;13.15;8.95;;;20.60;74.30;;;;;;10412019;28;20100;-64
2021/09/17 08:32:30;;;;;;;23.52;8.55;;;20.60;74.20;;;;;;10412973;28;20025;-65
2021/09/17 08:37:31;;;;;;;17.30;8.73;;;20.70;74.20;;;;;;10412861;28;20382;-62
2021/09/17 08:42:33;;;;;;;13.00;7.60;;;20.70;74.00;;;;;;10412221;28;20370;-62
2021/09/17 08:47:34;;;;;;;17.65;8.32;;;20.60;73.90;;;;;;10411186;28;20049;-61
2021/09/17 08:52:35;;;;;;;11.82;7.85;;;20.60;73.80;;;;;;10417025;28;20533;-61
2021/09/17 08:57:35;;;;;;;11.70;7.60;;;20.60;73.80;;;;;;10418189;28;20083;-61
2021/09/17 09:02:36;;;;;;;12.38;8.00;;;20.60;73.70;;;;;;10419523;28;20029;-61
2021/09/17 09:07:38;;;;;;;10.30;7.65;;;20.60;73.70;;;;;;10419531;28;20064;-61
2021/09/17 09:12:49;;;;;;;10.95;7.45;;;20.60;73.50;;;;;;10419408;28;20117;-62
2021/09/17 09:17:49;;;;;;;14.05;7.68;;;20.60;73.60;;;;;;10419026;28;20504;-61
2021/09/17 09:23:23;;;;;;;12.45;7.43;;;20.60;73.50;;;;;;10421570;28;20033;-61
2021/09/17 09:28:28;;;;;;;14.70;9.15;;;20.60;73.40;;;;;;10441559;28;20381;-61
2021/09/17 09:33:34;;;;;;;12.98;7.55;;;20.60;73.40;;;;;;10418539;28;20021;-62
2021/09/17 09:38:56;;;;;;;10.10;6.80;;;20.60;73.60;;;;;;10416359;28;20112;-62
2021/09/17 09:44:18;;;;;;;10.50;7.13;;;20.60;73.50;;;;;;10416260;28;20041;-61
2021/09/17 09:49:22;;;;;;;9.00;6.70;;;20.50;73.60;;;;;;10417022;28;20482;-61
2021/09/17 09:54:29;;;;;;;8.50;6.18;;;20.50;73.60;;;;;;10416571;28;20041;-62
2021/09/17 09:59:32;;;;;;;10.80;7.75;;;20.50;73.70;;;;;;10417282;28;20044;-61
2021/09/17 10:04:35;;;;;;;15.75;6.72;;;20.50;73.60;;;;;;10409300;28;20045;-62
2021/09/17 10:09:39;;;;;;;17.65;7.50;;;20.60;74.60;;;;;;10415967;28;20431;-63
2021/09/17 10:14:46;;;;;;;10.90;7.32;;;20.70;74.80;;;;;;10414820;28;20037;-63
2021/09/17 10:19:49;;;;;;;8.90;6.70;;;20.70;74.70;;;;;;10426290;28;20111;-62
2021/09/17 10:25:04;;;;;;;11.65;7.40;;;20.70;74.80;;;;;;10414359;28;20033;-63
2021/09/17 10:30:13;;;;;;;14.95;7.75;;;20.70;75.00;;;;;;10414435;28;20490;-61
2021/09/17 10:35:23;;;;;;;26.23;9.37;;;20.70;75.10;;;;;;10409291;28;20386;-63
2021/09/17 10:40:43;;;;;;;22.30;9.68;;;20.70;75.10;;;;;;10415546;28;20079;-62
2021/09/17 10:45:45;;;;;;;22.23;9.95;;;20.80;75.10;;;;;;10415294;28;20054;-62
2021/09/17 10:50:48;;;;;;;20.48;9.50;;;20.90;75.30;;;;;;10413945;28;20144;-61
2021/09/17 10:55:56;;;;;;;17.02;9.50;;;20.90;75.20;;;;;;10413736;28;20101;-62
2021/09/17 11:01:10;;;;;;;26.52;9.75;;;20.90;75.50;;;;;;10413815;28;20064;-62
2021/09/17 11:06:19;;;;;;;14.75;9.23;;;21.00;75.40;;;;;;10413573;28;20029;-64
2021/09/17 11:11:42;;;;;;;22.95;9.35;;;21.00;75.20;;;;;;10414223;28;20040;-59
2021/09/17 11:16:46;;;;;;;21.67;9.30;;;20.90;75.20;;;;;;10413788;28;20034;-63
2021/09/17 11:21:51;;;;;;;16.42;9.30;;;21.00;75.60;;;;;;10417955;28;20036;-60
2021/09/17 11:26:53;;;;;;;18.52;10.63;;;21.00;75.00;;;;;;10413142;28;20048;-60
2021/09/17 11:31:57;;;;;;;19.45;8.65;;;21.00;74.90;;;;;;10411962;28;20490;-59
2021/09/17 11:37:04;;;;;;;18.48;9.35;;;21.00;75.10;;;;;;10411887;28;20069;-58
2021/09/17 11:42:09;;;;;;;28.52;10.50;;;21.00;75.00;;;;;;10412662;28;20029;-60
2021/09/17 11:47:13;;;;;;;20.85;9.45;;;21.00;75.20;;;;;;10413857;28;20060;-58
2021/09/17 11:52:20;;;;;;;22.00;9.75;;;21.20;75.00;;;;;;10413956;28;20518;-58
2021/09/17 11:57:21;;;;;;;26.75;12.00;;;21.10;74.80;;;;;;10413205;28;20044;-58
2021/09/17 12:02:26;;;;;;;25.45;10.93;;;21.20;74.90;;;;;;10412481;28;20482;-59
2021/09/17 12:07:28;;;;;;;23.13;10.75;;;21.10;74.80;;;;;;10412341;28;20137;-59
2021/09/17 12:12:37;;;;;;;23.15;10.77;;;21.10;74.90;;;;;;10413523;28;20382;-59
2021/09/17 12:18:02;;;;;;;28.83;10.88;;;21.20;75.00;;;;;;10412171;28;20048;-58
2021/09/17 12:23:03;;;;;;;25.50;11.15;;;21.30;75.10;;;;;;10423751;28;20033;-58
2021/09/17 12:28:07;;;;;;;26.77;11.35;;;21.30;75.20;;;;;;10420424;28;20362;-58
2021/09/17 12:33:18;;;;;;;24.88;12.45;;;21.30;75.40;;;;;;10420871;28;20033;-59
2021/09/17 12:38:24;;;;;;;23.38;11.63;;;21.30;75.50;;;;;;10420651;28;20112;-58
2021/09/17 12:43:28;;;;;;;22.92;11.02;;;21.30;75.50;;;;;;10420152;28;20116;-58
2021/09/17 12:48:32;;;;;;;23.15;11.77;;;21.30;75.60;;;;;;10435988;28;20037;-58
2021/09/17 12:53:39;;;;;;;23.92;10.68;;;21.30;75.60;;;;;;10419230;28;20029;-58
2021/09/17 12:58:40;;;;;;;28.98;12.88;;;21.30;75.60;;;;;;10402235;28;20028;-59
2021/09/17 13:03:41;;;;;;;26.83;11.73;;;21.30;76.70;;;;;;10419697;28;20041;-57
2021/09/17 13:08:42;;;;;;;17.38;10.02;;;21.40;76.40;;;;;;10419667;28;20075;-58
2021/09/17 13:13:42;;;;;;;19.38;10.82;;;21.40;75.40;;;;;;10419683;28;20080;-60
2021/09/17 13:18:44;;;;;;;20.60;10.55;;;21.30;75.40;;;;;;10421766;28;20071;-58
2021/09/17 13:23:44;;;;;;;29.75;13.45;;;21.20;75.50;;;;;;10427340;28;20117;-58
2021/09/17 13:28:45;;;;;;;28.08;12.95;;;21.20;76.40;;;;;;10414176;28;20116;-59
2021/09/17 13:33:46;;;;;;;20.08;11.90;;;21.30;76.60;;;;;;10417637;28;20071;-58
2021/09/17 13:38:46;;;;;;;21.10;11.02;;;21.20;75.90;;;;;;10416749;28;20426;-58
2021/09/17 13:43:47;;;;;;;25.83;13.63;;;21.30;76.10;;;;;;10417035;28;20124;-58
2021/09/17 13:48:48;;;;;;;25.50;13.85;;;21.30;76.90;;;;;;10417721;28;20057;-58
2021/09/17 13:53:48;;;;;;;18.30;12.57;;;21.30;77.20;;;;;;10417281;28;20061;-58
2021/09/17 13:58:49;;;;;;;27.98;13.50;;;21.30;77.10;;;;;;10415903;28;20452;-58
2021/09/17 14:03:51;;;;;;;20.92;13.27;;;21.30;77.00;;;;;;10416061;28;20116;-59
2021/09/17 14:08:52;;;;;;;20.08;13.32;;;21.20;77.00;;;;;;10417440;28;20033;-58
2021/09/17 14:13:53;;;;;;;21.35;12.68;;;21.20;77.10;;;;;;10415279;28;20030;-58
2021/09/17 14:18:54;;;;;;;35.78;17.85;;;21.20;77.10;;;;;;10420142;28;20267;-59
2021/09/17 14:23:55;;;;;;;27.73;18.60;;;21.20;75.50;;;;;;10416101;28;20033;-58
2021/09/17 14:28:57;;;;;;;29.70;19.77;;;21.20;75.70;;;;;;10415655;28;20025;-58
2021/09/17 14:33:58;;;;;;;44.20;30.05;;;21.20;76.50;;;;;;10431104;28;20553;-60
2021/09/17 14:38:58;;;;;;;51.80;38.45;;;21.20;77.20;;;;;;10415443;28;20025;-58
2021/09/17 14:43:59;;;;;;;30.20;22.83;;;21.30;78.00;;;;;;10415301;28;20124;-58
2021/09/17 14:49:00;;;;;;;32.55;22.15;;;21.20;76.50;;;;;;10414105;28;20041;-57
2021/09/17 14:54:01;;;;;;;31.90;22.25;;;21.20;76.10;;;;;;10414692;28;20505;-57
2021/09/17 14:59:06;;;;;;;29.52;19.42;;;21.20;75.90;;;;;;10415501;28;20489;-59
2021/09/17 15:04:06;;;;;;;20.50;16.90;;;21.10;75.40;;;;;;10414214;28;20386;-59
2021/09/17 15:09:07;;;;;;;21.60;15.95;;;21.10;73.70;;;;;;10413742;28;20117;-58
2021/09/17 15:14:08;;;;;;;20.38;14.63;;;21.10;73.10;;;;;;10414732;28;20029;-53
2021/09/17 15:19:10;;;;;;;20.27;13.80;;;21.10;73.80;;;;;;10421200;28;20385;-53
2021/09/17 15:24:10;;;;;;;26.10;15.77;;;21.10;73.30;;;;;;10419309;28;20029;-51
2021/09/17 15:29:11;;;;;;;21.48;12.77;;;21.10;73.10;;;;;;10413048;28;20036;-48
2021/09/17 15:34:12;;;;;;;21.08;14.02;;;21.10;72.90;;;;;;10412973;28;20057;-51
2021/09/17 15:39:13;;;;;;;22.38;13.68;;;21.20;74.10;;;;;;10414274;28;20021;-46
2021/09/17 15:44:15;;;;;;;16.27;12.95;;;21.30;74.20;;;;;;10422497;28;20436;-46
2021/09/17 15:49:16;;;;;;;19.67;13.05;;;21.40;74.10;;;;;;10413626;28;20100;-47
2021/09/17 15:54:17;;;;;;;19.85;12.55;;;21.50;74.00;;;;;;10426226;28;20140;-51
2021/09/17 15:59:17;;;;;;;23.63;12.38;;;21.60;73.30;;;;;;10410012;28;20113;-49
2021/09/17 16:04:18;;;;;;;23.08;10.70;;;21.60;72.00;;;;;;10420333;28;20033;-56
2021/09/17 16:09:20;;;;;;;17.80;10.68;;;21.70;71.90;;;;;;10422206;28;20028;-59
2021/09/17 16:14:20;;;;;;;57.38;11.10;;;21.50;71.90;;;;;;10421537;28;20036;-45
2021/09/17 16:19:21;;;;;;;18.02;10.07;;;20.70;75.70;;;;;;10430588;28;20519;-44
2021/09/17 16:24:22;;;;;;;20.30;10.23;;;20.40;77.70;;;;;;10423382;28;20474;-44
2021/09/17 16:29:23;;;;;;;19.02;10.75;;;;;;;;;;10434983;28;20462;-45
2021/09/17 16:34:24;;;;;;;17.00;11.60;;;20.30;92.00;;;;;;10434695;28;20040;-46
2021/09/17 16:39:24;;;;;;;27.10;10.82;;;20.30;81.00;;;;;;10419784;28;20386;-48
2021/09/17 16:44:26;;;;;;;16.00;10.55;;;20.40;82.20;;;;;;10419229;28;20505;-50
2021/09/17 16:49:27;;;;;;;14.05;10.23;;;20.30;78.80;;;;;;10420819;28;20029;-44
2021/09/17 16:54:28;;;;;;;20.85;10.27;;;20.20;78.80;;;;;;10419110;28;20038;-48
2021/09/17 16:59:29;;;;;;;14.00;10.18;;;20.20;78.80;;;;;;10419893;28;20022;-45
2021/09/17 17:04:29;;;;;;;17.15;9.85;;;20.20;78.80;;;;;;10419873;28;20116;-45
2021/09/17 17:09:30;;;;;;;16.23;11.65;;;20.20;78.90;;;;;;10419346;28;20171;-45
2021/09/17 17:14:32;;;;;;;14.77;10.65;;;20.20;78.90;;;;;;10418160;28;20130;-48
2021/09/17 17:19:33;;;;;;;16.55;11.10;;;20.20;79.00;;;;;;10418124;28;20367;-45
2021/09/17 17:24:37;;;;;;;16.05;10.93;;;20.20;79.00;;;;;;10418401;28;20033;-48
2021/09/17 17:29:39;;;;;;;13.82;10.68;;;20.20;79.00;;;;;;10418824;28;20029;-45
2021/09/17 17:34:42;;;;;;;12.60;8.90;;;20.20;79.10;;;;;;10424360;28;20045;-46
2021/09/17 17:39:42;;;;;;;15.45;9.00;;;20.20;79.00;;;;;;10414787;28;20088;-47
2021/09/17 17:44:43;;;;;;;14.18;10.70;;;20.20;79.10;;;;;;10416990;28;20546;-47
2021/09/17 17:49:44;;;;;;;11.85;8.45;;;20.20;79.20;;;;;;10430482;28;20240;-45
2021/09/17 17:54:44;;;;;;;14.90;10.40;;;20.10;79.10;;;;;;10423931;28;20052;-45
2021/09/17 17:59:45;;;;;;;11.10;8.98;;;20.20;79.20;;;;;;10422451;28;20041;-47
2021/09/17 18:04:46;;;;;;;12.63;9.48;;;20.20;79.30;;;;;;10416856;28;20032;-49
2021/09/17 18:09:46;;;;;;;14.07;9.40;;;20.10;79.10;;;;;;10404572;28;20065;-45
2021/09/17 18:14:47;;;;;;;13.13;10.02;;;20.10;79.10;;;;;;10447072;28;20098;-48
2021/09/17 18:19:48;;;;;;;12.85;9.98;;;20.10;79.10;;;;;;10426973;28;20029;-45
2021/09/17 18:24:49;;;;;;;11.40;9.43;;;20.10;78.70;;;;;;10411171;28;20128;-45
2021/09/17 18:29:49;;;;;;;12.35;9.40;;;20.10;79.10;;;;;;10414888;28;20033;-45
2021/09/17 18:34:50;;;;;;;12.90;9.25;;;20.10;79.00;;;;;;10415048;28;20025;-46
2021/09/17 18:39:51;;;;;;;11.13;9.00;;;20.10;79.10;;;;;;10415081;28;20044;-45
2021/09/17 18:44:51;;;;;;;12.23;8.80;;;20.10;79.10;;;;;;10415891;28;20385;-48
2021/09/17 18:49:53;;;;;;;12.18;8.98;;;20.10;79.10;;;;;;10415186;28;20057;-45
2021/09/17 18:54:54;;;;;;;15.48;9.75;;;20.10;79.10;;;;;;10414214;28;20543;-45
2021/09/17 18:59:55;;;;;;;12.55;10.13;;;20.10;79.20;;;;;;10414103;28;20486;-45
2021/09/17 19:04:56;;;;;;;10.27;8.63;;;20.10;79.20;;;;;;10414196;28;20033;-46
2021/09/17 19:09:56;;;;;;;9.80;8.52;;;20.10;79.20;;;;;;10414097;28;20545;-45
2021/09/17 19:14:57;;;;;;;12.32;9.95;;;20.10;79.20;;;;;;10413811;28;20057;-46
2021/09/17 19:19:58;;;;;;;10.95;9.38;;;20.10;79.30;;;;;;10414694;28;20049;-48
2021/09/17 19:24:59;;;;;;;12.15;9.52;;;20.10;79.30;;;;;;10412634;28;20123;-50
2021/09/17 19:29:59;;;;;;;10.55;9.10;;;20.10;79.50;;;;;;10413285;28;20088;-46
2021/09/17 19:35:00;;;;;;;12.65;8.68;;;20.10;80.00;;;;;;10414326;28;20057;-45
2021/09/17 19:40:01;;;;;;;9.93;8.88;;;20.10;79.30;;;;;;10414134;28;20029;-47
2021/09/17 19:45:02;;;;;;;10.38;8.70;;;20.10;79.40;;;;;;10412474;28;20453;-47
2021/09/17 19:50:03;;;;;;;13.25;8.27;;;20.20;79.50;;;;;;10413864;28;20389;-47
2021/09/17 19:55:08;;;;;;;11.00;9.45;;;20.10;79.30;;;;;;10427387;28;20092;-46
2021/09/17 20:00:11;;;;;;;10.73;9.63;;;20.10;79.30;;;;;;10413188;28;20167;-44
2021/09/17 20:05:12;;;;;;;9.23;8.25;;;20.10;79.30;;;;;;10414125;28;20025;-44
2021/09/17 20:10:14;;;;;;;11.20;9.27;;;20.10;79.30;;;;;;10413662;28;20033;-45
2021/09/17 20:15:15;;;;;;;10.00;8.57;;;20.10;79.20;;;;;;10410077;28;20037;-45
2021/09/17 20:20:16;;;;;;;11.23;9.15;;;20.10;79.20;;;;;;10428304;28;20057;-46
2021/09/17 20:25:17;;;;;;;9.68;8.68;;;20.10;79.20;;;;;;10421128;28;20091;-46
2021/09/17 20:30:18;;;;;;;10.80;8.70;;;20.10;79.20;;;;;;10412122;28;20025;-45
2021/09/17 20:35:19;;;;;;;9.93;8.32;;;20.10;79.20;;;;;;10413313;28;20128;-45
2021/09/17 20:40:20;;;;;;;9.10;8.13;;;20.10;79.10;;;;;;10413437;28;20021;-46
2021/09/17 20:45:24;;;;;;;8.55;7.63;;;20.00;79.10;;;;;;10412666;28;20053;-45
2021/09/17 20:50:24;;;;;;;8.90;8.00;;;20.00;79.10;;;;;;10420129;28;20065;-45
2021/09/17 20:55:25;;;;;;;10.75;8.27;;;20.00;79.10;;;;;;10421030;28;20059;-44
2021/09/17 21:00:26;;;;;;;9.70;8.73;;;20.00;79.00;;;;;;10432917;28;20116;-45
2021/09/17 21:05:27;;;;;;;9.95;8.68;;;20.00;79.10;;;;;;10420561;28;20466;-45
2021/09/17 21:10:27;;;;;;;9.45;8.45;;;20.00;79.00;;;;;;10433437;28;20120;-46
2021/09/17 21:15:28;;;;;;;10.13;8.57;;;20.00;79.60;;;;;;10419747;28;20040;-45
2021/09/17 21:20:29;;;;;;;9.63;8.20;;;20.00;79.10;;;;;;10430809;28;20075;-44
2021/09/17 21:25:30;;;;;;;10.43;9.38;;;;;;;;;;10451407;28;20497;-45
2021/09/17 21:30:32;;;;;;;8.82;7.90;;;20.00;88.20;;;;;;10419200;28;20029;-49
2021/09/17 21:35:33;;;;;;;8.98;7.97;;;20.10;90.00;;;;;;10432230;28;20111;-44
2021/09/17 21:40:34;;;;;;;8.30;7.38;;;20.00;78.90;;;;;;10418875;28;20030;-46
2021/09/17 21:45:35;;;;;;;8.50;7.47;;;20.00;78.80;;;;;;10405571;28;20061;-47
2021/09/17 21:50:38;;;;;;;8.43;7.53;;;20.00;78.80;;;;;;10418510;28;20038;-49
2021/09/17 21:55:39;;;;;;;8.20;7.25;;;20.00;78.70;;;;;;10418049;28;20108;-46
2021/09/17 22:00:40;;;;;;;9.00;8.10;;;20.00;78.70;;;;;;10416614;28;20025;-50
2021/09/17 22:05:41;;;;;;;10.57;7.75;;;19.90;78.60;;;;;;10418015;28;20043;-47
2021/09/17 22:10:42;;;;;;;8.73;7.82;;;20.00;78.60;;;;;;10431010;28;20032;-46
2021/09/17 22:15:43;;;;;;;8.30;7.43;;;19.90;78.50;;;;;;10417654;28;20059;-45
2021/09/17 22:20:44;;;;;;;7.53;6.72;;;19.90;79.00;;;;;;10429614;28;20537;-47
2021/09/17 22:25:44;;;;;;;8.43;7.53;;;20.00;78.40;;;;;;10417331;28;20389;-45
2021/09/17 22:30:45;;;;;;;8.25;7.35;;;20.00;78.40;;;;;;10417025;28;20094;-47
2021/09/17 22:35:46;;;;;;;7.65;6.88;;;20.00;78.40;;;;;;10416651;28;20029;-46
2021/09/17 22:40:46;;;;;;;7.18;6.45;;;19.90;78.30;;;;;;10430393;28;20021;-47
2021/09/17 22:45:48;;;;;;;7.93;7.13;;;19.90;78.20;;;;;;10416764;28;20041;-45
2021/09/17 22:50:49;;;;;;;7.68;6.88;;;19.90;78.20;;;;;;10416264;28;20029;-45
2021/09/17 22:55:50;;;;;;;8.13;6.78;;;19.90;78.10;;;;;;10416164;28;20455;-45
2021/09/17 23:00:51;;;;;;;7.82;7.03;;;19.90;78.00;;;;;;10416171;28;20034;-47
2021/09/17 23:05:51;;;;;;;7.90;7.20;;;19.90;78.00;;;;;;10429034;28;20033;-46
2021/09/17 23:10:52;;;;;;;8.13;7.32;;;19.90;77.80;;;;;;10414605;28;20569;-46
2021/09/17 23:15:53;;;;;;;7.93;6.60;;;19.90;77.70;;;;;;10415599;28;20104;-46
2021/09/17 23:20:55;;;;;;;7.68;6.80;;;19.90;77.70;;;;;;10427195;28;20229;-49
2021/09/17 23:25:55;;;;;;;8.77;6.93;;;19.90;77.70;;;;;;10414785;28;20429;-45
2021/09/17 23:30:56;;;;;;;8.05;7.05;;;19.90;77.70;;;;;;10414969;28;20017;-48
2021/09/17 23:35:57;;;;;;;8.77;7.22;;;19.90;77.70;;;;;;10414814;28;20096;-46
2021/09/17 23:40:58;;;;;;;8.73;6.85;;;19.90;77.60;;;;;;10415031;28;20095;-47
2021/09/17 23:45:59;;;;;;;7.88;6.30;;;19.90;77.60;;;;;;10414053;28;20064;-45
2021/09/17 23:50:59;;;;;;;7.63;6.63;;;19.90;77.40;;;;;;10414282;28;20044;-46
2021/09/17 23:56:00;;;;;;;7.10;6.30;;;19.90;77.40;;;;;;10414168;28;20112;-46
